Ferryhill, United Kingdom
Current Conditions -  °F | °C
As of 5:50 PM on Monday 22 Dec 2014 (Local Time) from EGNV Reporting Station
Scattered Clouds Scattered Clouds  
Wind Chill: 13°   Ceiling: Unl
Heat Index: 13°   Visibility: 6mi
Dew Point:   Wind: 18mph
Humidity: 72%   Direction: 240°WSW
Pressure: 29.71"   Gusts: NA
Location:  54.68°N, 1.55°W
Report Text: EGNV 221750Z 24016KT 9999 FEW021 SCT030 13/08 Q1006
Loading
Personal Weather Stations






























Interactive Weather Map New forecast layout! Learn more

10-Day Weather Forecast

Advertisements
Track Severe Weather on mobile